Enter the Airport ICAO Code

Search by Airport or City

Current Weather

MDPC | Punta Cana International Airport

Punta Cana, Dominican Republic

Last Update 55 Minutes Ago

Partly Cloudy Sky

Temperature of 27 ºC

Light to Moderate Winds from East

Temperature

27 ºC

Dew Point Temperature

22 ºC

Relative Humidity

74.27 %

Wind Direction

East (070º, Without Significant Variations)

Wind Velocity

15 km/h (08 kt)

Gusts

None

Visibility

Greater than 10 Kilometers

Sea Level Pressure

1014 hPa (Hectopascals)

Layers of Clouds

5% to 30% of Sky Covered from 640 mts (2100 ft) Above Ground Level.

30% to 60% of Sky Covered from 9144 mts (30000 ft) Above Ground Level.

METAR MDPC 022100Z 07008KT 9999 FEW021 SCT300 27/22 Q1014

Weather Forecast

MDPC | Punta Cana International Airport

Punta Cana, Dominican Republic

Forecast valid for the next 20 Hours

From now on it is expected:

Sky with Few Clouds

Moderate Winds from East

Maximum Temperature

No Data

Minimum Temperature

No Data

TAF MDPC 021600Z 0218/0318 07010KT 9999 FEW020 PROB30 0221/0303 9999 TS FEW016CB SCT020